Time;durP1;ratioP1;P1;durP2;ratioP2;P2;SDS_P1;SDS_P2;PMS_P1;PMS_P2;Temp;Humidity;BMP_temperature;BMP_pressure;BME280_temperature;BME280_humidity;BME280_pressure;Samples;Min_cycle;Max_cycle;Signal;HPM_P1;HPM_P2
2022/02/01 00:01:55;;;;;;;11.03;9.93;;;30.10;62.50;;;;;;5034888;28;20679;-72
2022/02/01 00:04:54;;;;;;;10.57;9.50;;;30.20;61.30;;;;;;5032323;28;20491;-74
2022/02/01 00:09:56;;;;;;;18.00;16.07;;;30.50;61.10;;;;;;5035183;28;20188;-74
2022/02/01 00:13:15;;;;;;;12.57;11.37;;;30.50;59.90;;;;;;5033528;28;20180;-74
2022/02/01 00:15:44;;;;;;;10.83;9.73;;;30.60;60.50;;;;;;5034062;28;20200;-74
2022/02/01 00:37:07;;;;;;;15.45;9.18;;;31.10;60.50;;;;;;5034919;28;20187;-76
2022/02/01 00:39:42;;;;;;;15.13;9.68;;;30.60;61.90;;;;;;5034728;28;20270;-74
2022/02/01 00:42:11;;;;;;;13.10;8.95;;;30.90;61.00;;;;;;5035070;28;20176;-74
2022/02/01 00:44:39;;;;;;;11.80;8.45;;;31.10;60.30;;;;;;5034558;28;20181;-74
2022/02/01 00:47:08;;;;;;;16.57;9.53;;;31.50;59.40;;;;;;5034562;28;20188;-76
2022/02/01 00:49:38;;;;;;;12.15;9.40;;;31.40;59.00;;;;;;5034989;28;20623;-75
2022/02/01 00:52:06;;;;;;;12.63;8.88;;;31.40;59.00;;;;;;5033405;28;20283;-75
2022/02/01 00:54:34;;;;;;;11.70;8.95;;;31.60;58.90;;;;;;5030369;28;20711;-75
2022/02/01 00:57:01;;;;;;;13.48;9.10;;;31.80;56.90;;;;;;5032721;28;20211;-74
2022/02/01 00:59:29;;;;;;;9.95;8.77;;;31.80;58.00;;;;;;5033407;28;20176;-75
2022/02/01 01:01:56;;;;;;;13.07;10.02;;;31.90;57.30;;;;;;5033301;28;20744;-76
2022/02/01 01:04:23;;;;;;;10.98;8.75;;;32.20;56.50;;;;;;5033062;28;20193;-75
2022/02/01 01:06:50;;;;;;;9.82;8.80;;;32.20;55.90;;;;;;5033279;28;20187;-75
2022/02/01 01:09:18;;;;;;;12.65;8.75;;;32.40;55.70;;;;;;5033911;28;20229;-74
2022/02/01 01:11:45;;;;;;;9.70;8.55;;;32.60;55.60;;;;;;5032370;28;20220;-76
2022/02/01 01:43:56;;;;;;;8.40;7.15;;;33.40;50.30;;;;;;5032405;28;20568;-74
2022/02/01 01:54:27;;;;;;;12.75;8.00;;;33.70;50.60;;;;;;5033046;28;20256;-75
2022/02/01 01:56:56;;;;;;;11.93;8.13;;;33.50;50.70;;;;;;5031983;28;20545;-75
2022/02/01 01:59:25;;;;;;;9.82;7.43;;;33.40;52.10;;;;;;5032361;28;20188;-74
2022/02/01 02:01:53;;;;;;;10.07;7.57;;;33.50;51.50;;;;;;5031725;28;20176;-74
2022/02/01 02:04:21;;;;;;;11.23;7.70;;;33.80;49.80;;;;;;5032165;28;20192;-74
2022/02/01 02:06:48;;;;;;;8.88;6.82;;;34.00;49.80;;;;;;5031078;28;20322;-74
2022/02/01 02:09:17;;;;;;;10.20;7.22;;;34.10;49.40;;;;;;5031806;28;20556;-74
2022/02/01 02:14:19;;;;;;;10.95;7.22;;;33.70;49.70;;;;;;5033505;28;20176;-74
2022/02/01 02:16:54;;;;;;;16.48;7.22;;;33.60;50.10;;;;;;5030529;28;20255;-75
2022/02/01 02:19:23;;;;;;;9.23;7.57;;;33.70;50.30;;;;;;5033374;28;20180;-76
2022/02/01 02:21:53;;;;;;;12.98;6.68;;;33.80;49.30;;;;;;5031742;28;20238;-74
2022/02/01 02:24:22;;;;;;;13.27;7.07;;;34.00;47.90;;;;;;5032535;28;20185;-78
2022/02/01 02:26:50;;;;;;;9.60;6.38;;;34.20;47.50;;;;;;5032934;28;20189;-72
2022/02/01 02:29:18;;;;;;;11.68;6.30;;;34.30;46.10;;;;;;5028800;28;20203;-74
2022/02/01 02:31:47;;;;;;;14.52;6.05;;;34.80;45.60;;;;;;5032649;28;20216;-74
2022/02/01 02:34:15;;;;;;;8.23;5.10;;;34.90;44.40;;;;;;5032798;28;20677;-74
2022/02/01 02:36:48;;;;;;;10.60;5.43;;;34.90;45.00;;;;;;5028441;28;20192;-73
2022/02/01 02:39:32;;;;;;;8.63;5.05;;;34.90;44.60;;;;;;5032155;28;20273;-75
2022/02/01 02:47:21;;;;;;;12.07;6.15;;;35.40;43.30;;;;;;5031742;28;20230;-74
2022/02/01 02:49:48;;;;;;;8.95;5.93;;;35.10;44.60;;;;;;5032597;28;20181;-74
2022/02/01 02:52:16;;;;;;;7.80;5.32;;;35.10;44.30;;;;;;5031884;28;20193;-75
2022/02/01 02:54:44;;;;;;;11.43;6.85;;;35.20;46.10;;;;;;5032769;28;20713;-78
2022/02/01 02:57:14;;;;;;;10.15;5.80;;;34.80;47.60;;;;;;5032108;28;20685;-74
2022/02/01 02:59:42;;;;;;;10.38;5.82;;;34.60;46.60;;;;;;5032461;28;20191;-74
2022/02/01 03:02:09;;;;;;;9.70;6.25;;;35.10;45.80;;;;;;5032378;28;20646;-75
2022/02/01 03:04:37;;;;;;;8.05;5.03;;;35.30;43.60;;;;;;5032386;28;20192;-74
2022/02/01 03:07:09;;;;;;;8.48;4.97;;;35.60;43.90;;;;;;5032179;28;20185;-76
2022/02/01 03:09:43;;;;;;;6.60;4.80;;;35.50;42.30;;;;;;5032194;28;20193;-74
2022/02/01 03:12:20;;;;;;;9.68;5.38;;;35.40;41.80;;;;;;5032085;28;20548;-73
2022/02/01 03:15:08;;;;;;;7.65;5.25;;;35.80;42.40;;;;;;5026395;28;20611;-74
2022/02/01 03:20:33;;;;;;;7.22;5.55;;;36.80;41.00;;;;;;5015918;28;20192;-73
2022/02/01 03:23:01;;;;;;;7.57;5.22;;;36.80;41.10;;;;;;5032176;28;20183;-73
2022/02/01 03:25:28;;;;;;;6.90;4.95;;;36.00;43.20;;;;;;5032047;28;20322;-72
2022/02/01 03:27:56;;;;;;;5.82;4.80;;;36.00;42.70;;;;;;5032359;28;20188;-72
2022/02/01 03:30:23;;;;;;;6.47;4.72;;;35.70;43.40;;;;;;5031160;28;20244;-71
2022/02/01 03:32:50;;;;;;;8.60;5.38;;;34.40;45.60;;;;;;5032118;28;20177;-72
2022/02/01 03:35:18;;;;;;;8.52;5.05;;;34.20;47.20;;;;;;5031178;28;20203;-72
2022/02/01 03:37:45;;;;;;;11.00;5.75;;;34.00;47.40;;;;;;5032135;28;20184;-71
2022/02/01 03:40:19;;;;;;;10.65;5.40;;;34.00;48.20;;;;;;5029559;28;20698;-73
2022/02/01 03:42:46;;;;;;;8.73;5.90;;;34.70;47.20;;;;;;5025863;28;20204;-71
2022/02/01 03:45:14;;;;;;;12.45;5.85;;;34.30;48.20;;;;;;5029999;28;20184;-71
2022/02/01 03:47:41;;;;;;;9.30;5.63;;;34.20;48.90;;;;;;5028206;28;20716;-74
2022/02/01 03:50:09;;;;;;;8.38;5.30;;;34.10;49.10;;;;;;5029788;28;20215;-74
2022/02/01 03:52:37;;;;;;;9.50;4.95;;;34.10;48.70;;;;;;5029889;28;20203;-73
2022/02/01 03:55:07;;;;;;;9.75;5.32;;;34.90;47.60;;;;;;5027312;28;20177;-73
2022/02/01 03:57:34;;;;;;;9.52;5.20;;;35.10;46.30;;;;;;5029496;28;20188;-73
2022/02/01 04:00:03;;;;;;;16.25;5.80;;;34.60;47.40;;;;;;5029871;28;20552;-73
2022/02/01 04:02:30;;;;;;;7.35;4.88;;;34.30;48.80;;;;;;5028580;28;20312;-73
2022/02/01 04:04:58;;;;;;;10.73;5.53;;;33.80;49.60;;;;;;5030115;28;20185;-73
2022/02/01 04:07:25;;;;;;;12.90;5.35;;;33.80;49.30;;;;;;5026372;28;20184;-72
2022/02/01 04:09:52;;;;;;;9.95;5.65;;;33.30;50.40;;;;;;5029069;28;20199;-74
2022/02/01 04:12:20;;;;;;;10.15;5.80;;;33.10;51.40;;;;;;5029816;28;20181;-74
2022/02/01 04:14:47;;;;;;;12.15;4.90;;;33.10;51.50;;;;;;5031711;28;20180;-73
2022/02/01 04:17:18;;;;;;;14.15;5.40;;;32.40;53.10;;;;;;5030968;28;20791;-74
2022/02/01 04:19:47;;;;;;;9.77;5.35;;;32.40;53.50;;;;;;5024659;28;20272;-74
2022/02/01 04:22:15;;;;;;;12.82;6.18;;;32.50;54.10;;;;;;5030520;28;20196;-75
2022/02/01 04:24:44;;;;;;;18.13;5.35;;;32.40;54.60;;;;;;5031171;28;20180;-73
2022/02/01 04:27:31;;;;;;;11.48;5.40;;;32.50;54.50;;;;;;5030494;28;20612;-73
2022/02/01 04:30:08;;;;;;;12.02;5.10;;;32.40;54.90;;;;;;5025966;28;20180;-72
2022/02/01 04:32:44;;;;;;;10.35;4.85;;;32.60;54.60;;;;;;5031115;28;20185;-72
2022/02/01 04:35:17;;;;;;;12.65;5.20;;;32.40;53.80;;;;;;5028469;28;20190;-73
2022/02/01 04:37:45;;;;;;;10.55;5.57;;;32.30;54.30;;;;;;5027352;28;20195;-72
2022/02/01 04:40:15;;;;;;;10.38;5.45;;;32.60;54.00;;;;;;5028433;28;20585;-73
2022/02/01 04:42:43;;;;;;;10.85;5.53;;;32.50;54.10;;;;;;5028306;28;20215;-74
2022/02/01 04:45:15;;;;;;;16.58;5.40;;;32.50;53.50;;;;;;5031033;28;20588;-73
2022/02/01 04:47:44;;;;;;;8.43;5.10;;;32.40;54.30;;;;;;5047114;28;20243;-73
2022/02/01 04:50:14;;;;;;;10.73;5.30;;;32.50;54.10;;;;;;5034044;28;20208;-74
2022/02/01 04:52:44;;;;;;;9.63;5.05;;;32.50;54.10;;;;;;5032864;28;20559;-75
2022/02/01 04:55:13;;;;;;;12.85;5.40;;;33.20;52.50;;;;;;5033897;28;20650;-75
2022/02/01 04:57:53;;;;;;;10.18;4.50;;;33.60;50.30;;;;;;5031214;28;20188;-75
2022/02/01 05:00:26;;;;;;;9.88;5.18;;;33.80;48.50;;;;;;5031772;28;20253;-76
2022/02/01 05:02:58;;;;;;;13.65;5.43;;;33.30;50.30;;;;;;5032083;28;20203;-75
2022/02/01 05:05:30;;;;;;;13.65;5.50;;;33.00;51.40;;;;;;5031677;28;20239;-74
2022/02/01 05:08:03;;;;;;;11.85;5.93;;;32.80;52.30;;;;;;5034189;28;20235;-75
2022/02/01 05:10:35;;;;;;;10.98;5.70;;;32.60;52.90;;;;;;5033272;28;20213;-75
2022/02/01 05:16:06;;;;;;;15.00;5.50;;;32.50;51.80;;;;;;5032449;28;20195;-74
2022/02/01 05:19:03;;;;;;;11.38;5.40;;;32.10;51.90;;;;;;5029592;28;20259;-75
2022/02/01 05:21:26;;;;;;;7.30;5.60;;;31.90;52.00;;;;;;5032026;28;20314;-73
2022/02/01 05:23:56;;;;;;;9.75;6.03;;;31.90;51.00;;;;;;5033477;28;20267;-75
2022/02/01 05:26:26;;;;;;;9.88;6.03;;;31.90;51.90;;;;;;5032592;28;20177;-76
2022/02/01 05:28:54;;;;;;;14.60;6.60;;;31.60;53.30;;;;;;5032872;28;20271;-75
2022/02/01 05:31:23;;;;;;;13.18;7.03;;;31.30;54.80;;;;;;5033462;28;20262;-74
2022/02/01 05:33:51;;;;;;;14.05;8.70;;;31.00;56.50;;;;;;5034117;28;20204;-76
2022/02/01 05:36:18;;;;;;;13.02;7.65;;;30.60;57.90;;;;;;5033660;28;20169;-75
2022/02/01 05:38:49;;;;;;;10.47;7.60;;;30.30;58.90;;;;;;5048878;28;21594;-74
2022/02/01 05:41:16;;;;;;;14.30;9.15;;;30.20;59.40;;;;;;5030519;28;20232;-73
2022/02/01 05:43:44;;;;;;;9.55;7.47;;;30.00;59.60;;;;;;5031641;28;20660;-75
2022/02/01 05:46:12;;;;;;;11.77;8.43;;;29.80;60.10;;;;;;5032255;28;20168;-74
2022/02/01 05:48:41;;;;;;;10.73;8.60;;;29.80;61.10;;;;;;5031424;28;20185;-74
2022/02/01 05:51:08;;;;;;;12.13;9.63;;;29.70;62.60;;;;;;5029805;28;20220;-74
2022/02/01 05:53:36;;;;;;;24.93;11.23;;;29.70;64.90;;;;;;5031549;28;20193;-76
2022/02/01 05:56:03;;;;;;;15.63;10.13;;;29.50;70.60;;;;;;5030885;28;20587;-78
2022/02/01 05:58:31;;;;;;;15.27;9.87;;;29.30;69.60;;;;;;5033285;28;20681;-76
2022/02/01 06:00:58;;;;;;;31.80;22.20;;;29.10;70.70;;;;;;5031991;28;20180;-77
2022/02/01 06:03:25;;;;;;;27.90;14.13;;;28.90;73.70;;;;;;5032308;28;20545;-78
2022/02/01 06:05:53;;;;;;;25.77;12.47;;;28.70;79.60;;;;;;5032274;28;20184;-78
2022/02/01 06:08:21;;;;;;;21.73;13.17;;;28.30;80.10;;;;;;5031718;28;20211;-74
2022/02/01 06:10:48;;;;;;;22.20;13.97;;;28.10;81.80;;;;;;5029201;28;20295;-80
2022/02/01 06:13:16;;;;;;;25.27;14.00;;;28.00;82.00;;;;;;5032991;28;20188;-73
2022/02/01 06:15:43;;;;;;;18.17;11.13;;;28.00;82.10;;;;;;5032792;28;20185;-75
2022/02/01 06:18:10;;;;;;;19.67;12.43;;;28.00;80.50;;;;;;5033320;28;20628;-74
2022/02/01 06:20:38;;;;;;;15.33;10.50;;;28.00;80.30;;;;;;5031308;28;20211;-74
2022/02/01 06:23:13;;;;;;;19.17;11.53;;;28.10;79.40;;;;;;5032447;28;20193;-75
2022/02/01 06:25:51;;;;;;;19.37;11.40;;;28.30;79.50;;;;;;5030399;28;20168;-77
2022/02/01 06:28:27;;;;;;;20.57;11.47;;;28.40;78.70;;;;;;5031529;28;20192;-77
2022/02/01 06:30:55;;;;;;;14.40;10.17;;;29.20;75.40;;;;;;5031652;28;20204;-75
2022/02/01 06:33:24;;;;;;;18.57;12.17;;;29.50;74.10;;;;;;5031621;28;20704;-72
2022/02/01 06:35:52;;;;;;;21.07;15.37;;;29.20;73.30;;;;;;5032484;28;20180;-72
2022/02/01 06:38:20;;;;;;;20.03;10.00;;;28.90;75.60;;;;;;5032420;28;20177;-73
2022/02/01 06:40:49;;;;;;;13.97;9.17;;;28.50;75.60;;;;;;5032182;28;20221;-73
2022/02/01 06:43:16;;;;;;;17.30;9.63;;;28.30;76.00;;;;;;5031520;28;20187;-72
2022/02/01 06:45:44;;;;;;;15.20;10.47;;;28.20;76.20;;;;;;5031998;28;20188;-72
2022/02/01 06:48:12;;;;;;;15.13;8.50;;;28.20;76.60;;;;;;5032723;28;20265;-72
2022/02/01 06:50:39;;;;;;;13.20;8.30;;;28.00;74.30;;;;;;5032294;28;20224;-72
2022/02/01 06:53:07;;;;;;;18.33;10.00;;;27.80;73.70;;;;;;5031826;28;20209;-71
2022/02/01 06:55:44;;;;;;;15.57;9.90;;;27.70;75.10;;;;;;5032072;28;20191;-71
2022/02/01 06:58:16;;;;;;;12.00;7.87;;;27.60;74.40;;;;;;5031787;28;20564;-71
2022/02/01 07:00:44;;;;;;;8.63;6.40;;;27.50;73.70;;;;;;5032196;28;20192;-74
2022/02/01 07:03:12;;;;;;;12.63;7.07;;;27.30;72.60;;;;;;5032441;28;20204;-73
2022/02/01 07:05:39;;;;;;;14.73;6.97;;;27.30;74.20;;;;;;5028716;28;20180;-74
2022/02/01 07:08:07;;;;;;;9.50;6.90;;;27.30;73.80;;;;;;5031459;28;20651;-74
2022/02/01 07:10:34;;;;;;;12.07;7.13;;;27.20;74.00;;;;;;5031397;28;20204;-75
2022/02/01 07:13:02;;;;;;;8.23;5.30;;;27.20;74.40;;;;;;5031997;28;20188;-74
2022/02/01 07:15:29;;;;;;;10.03;5.53;;;27.10;72.30;;;;;;5032006;28;20208;-79
2022/02/01 07:17:57;;;;;;;7.53;5.37;;;27.10;72.30;;;;;;5029867;28;20173;-77
2022/02/01 07:20:25;;;;;;;7.30;5.30;;;27.00;72.10;;;;;;5030207;28;20173;-77
2022/02/01 07:22:53;;;;;;;9.07;4.97;;;27.00;72.00;;;;;;5030545;28;20555;-79
2022/02/01 07:25:32;;;;;;;9.27;5.20;;;27.10;70.20;;;;;;5047661;28;20200;-81
2022/02/01 07:28:04;;;;;;;9.90;5.20;;;27.00;70.90;;;;;;5031879;28;20207;-78
2022/02/01 07:30:32;;;;;;;12.50;5.27;;;27.10;71.40;;;;;;5029323;28;20212;-77
2022/02/01 07:33:02;;;;;;;9.07;5.03;;;27.10;71.10;;;;;;5030957;28;20181;-79
2022/02/01 07:35:32;;;;;;;6.97;4.60;;;27.10;69.00;;;;;;5031468;28;20231;-80
2022/02/01 07:38:00;;;;;;;6.97;4.30;;;27.20;69.80;;;;;;5031727;28;20176;-79
2022/02/01 07:40:28;;;;;;;8.23;4.70;;;27.10;69.80;;;;;;5031745;28;20299;-81
2022/02/01 07:42:56;;;;;;;7.10;4.37;;;27.20;70.10;;;;;;5039920;28;20276;-75
2022/02/01 07:45:29;;;;;;;8.97;6.07;;;26.80;71.30;;;;;;5030453;28;20248;-76
2022/02/01 07:47:59;;;;;;;8.63;5.90;;;26.30;74.60;;;;;;5029271;28;20268;-79
2022/02/01 07:50:27;;;;;;;8.90;6.00;;;26.00;76.50;;;;;;5030122;28;20196;-75
2022/02/01 07:52:55;;;;;;;13.03;7.63;;;25.90;78.60;;;;;;5027884;28;20663;-78
2022/02/01 07:55:22;;;;;;;11.77;6.27;;;25.80;80.00;;;;;;5030874;28;20255;-78
2022/02/01 07:57:50;;;;;;;7.70;5.90;;;25.80;79.30;;;;;;5030914;28;20525;-78
2022/02/01 08:00:17;;;;;;;11.10;5.33;;;25.70;79.20;;;;;;5030631;28;20672;-81
2022/02/01 08:02:45;;;;;;;9.33;5.10;;;25.60;78.60;;;;;;5026991;28;20176;-76
2022/02/01 08:05:13;;;;;;;6.30;5.07;;;25.50;78.40;;;;;;5026250;28;20187;-76
2022/02/01 08:07:40;;;;;;;8.47;5.83;;;25.50;78.10;;;;;;5027228;28;20185;-77
2022/02/01 08:10:12;;;;;;;8.27;5.67;;;25.50;77.80;;;;;;5029867;28;20183;-76
2022/02/01 08:18:31;;;;;;;8.80;5.50;;;25.30;79.60;;;;;;5029989;28;20608;-76
2022/02/01 08:21:04;;;;;;;9.83;6.40;;;25.30;79.00;;;;;;5033131;28;20172;-77
2022/02/01 08:23:33;;;;;;;9.70;6.40;;;25.30;79.70;;;;;;5034308;28;20287;-76
2022/02/01 08:26:00;;;;;;;12.27;7.00;;;25.30;79.60;;;;;;5034973;28;20211;-80
2022/02/01 08:28:28;;;;;;;10.67;7.67;;;25.30;80.70;;;;;;5034019;28;20267;-83
2022/02/01 08:30:56;;;;;;;12.07;7.97;;;25.40;80.70;;;;;;5030103;28;20244;-79
2022/02/01 08:33:23;;;;;;;8.90;6.93;;;25.30;81.60;;;;;;5035035;28;20654;-80
2022/02/01 08:35:51;;;;;;;13.07;8.50;;;25.30;81.20;;;;;;5035046;28;20226;-79
2022/02/01 08:38:19;;;;;;;13.57;8.10;;;25.50;82.50;;;;;;5031859;28;20173;-80
2022/02/01 08:40:48;;;;;;;10.93;7.50;;;25.50;81.90;;;;;;5034590;28;20220;-81
2022/02/01 08:43:19;;;;;;;9.63;8.13;;;25.60;82.30;;;;;;5032992;28;20236;-80
2022/02/01 08:45:48;;;;;;;10.30;7.70;;;25.70;81.90;;;;;;5033716;28;20184;-76
2022/02/01 08:48:16;;;;;;;15.47;7.80;;;25.70;80.30;;;;;;5032185;28;20188;-80
2022/02/01 08:50:44;;;;;;;16.40;9.77;;;25.60;81.30;;;;;;5034955;28;20350;-81
2022/02/01 08:53:18;;;;;;;18.07;11.50;;;25.60;81.60;;;;;;5034086;28;20556;-80
2022/02/01 08:58:24;;;;;;;14.43;8.80;;;25.80;82.10;;;;;;5033034;28;20223;-80
2022/02/01 09:00:52;;;;;;;10.73;7.83;;;25.80;82.20;;;;;;5034514;28;20224;-78
2022/02/01 09:03:20;;;;;;;11.10;8.03;;;25.80;82.00;;;;;;5034707;28;20256;-82
2022/02/01 09:05:49;;;;;;;12.40;8.53;;;25.80;82.10;;;;;;5035149;28;20181;-81
2022/02/01 09:08:16;;;;;;;9.13;8.17;;;25.70;82.40;;;;;;5034781;28;20191;-81
2022/02/01 09:10:44;;;;;;;13.23;9.10;;;25.70;82.40;;;;;;5034794;28;20199;-80
2022/02/01 09:13:12;;;;;;;13.33;8.27;;;25.70;82.80;;;;;;5048733;28;20636;-80
2022/02/01 09:15:39;;;;;;;11.33;8.50;;;25.70;83.20;;;;;;5034639;28;20260;-78
2022/02/01 09:18:06;;;;;;;14.37;9.13;;;25.60;82.90;;;;;;5033542;28;20184;-76
2022/02/01 09:20:34;;;;;;;11.20;8.33;;;25.60;83.90;;;;;;5039728;28;20191;-76
2022/02/01 09:23:02;;;;;;;11.90;8.77;;;25.80;83.20;;;;;;5034490;28;20192;-76
2022/02/01 09:25:30;;;;;;;11.70;8.87;;;25.70;84.00;;;;;;5032201;28;20547;-77
2022/02/01 09:27:59;;;;;;;12.00;9.20;;;25.70;84.80;;;;;;5033723;28;20192;-77
2022/02/01 09:30:27;;;;;;;9.60;8.47;;;25.70;85.40;;;;;;5028645;28;20298;-76
2022/02/01 09:32:54;;;;;;;13.97;8.10;;;25.60;85.10;;;;;;5033496;28;20703;-78
2022/02/01 09:35:22;;;;;;;12.07;8.33;;;25.50;85.30;;;;;;5034005;28;20172;-78
2022/02/01 09:37:49;;;;;;;15.93;12.33;;;25.50;85.80;;;;;;5033636;28;20264;-77
2022/02/01 09:40:17;;;;;;;15.00;11.70;;;25.50;86.70;;;;;;5033224;28;20299;-79
2022/02/01 09:42:44;;;;;;;15.83;12.57;;;25.50;86.80;;;;;;5030126;28;20670;-79
2022/02/01 09:45:12;;;;;;;10.30;8.07;;;25.60;86.90;;;;;;5032814;28;20173;-79
2022/02/01 09:47:46;;;;;;;13.87;8.90;;;25.60;86.50;;;;;;5033499;28;20188;-81
2022/02/01 09:50:16;;;;;;;11.23;8.70;;;25.50;86.60;;;;;;5032419;28;20682;-80
2022/02/01 09:52:43;;;;;;;12.10;8.30;;;25.60;87.50;;;;;;5030607;28;20189;-84
2022/02/01 09:55:13;;;;;;;11.87;8.87;;;25.60;87.60;;;;;;5031509;28;20181;-85
2022/02/01 09:57:45;;;;;;;14.90;7.93;;;25.60;87.50;;;;;;5030736;28;20227;-83
2022/02/01 10:00:15;;;;;;;13.77;9.77;;;25.60;87.00;;;;;;5028997;28;20219;-81
2022/02/01 10:02:46;;;;;;;11.50;8.27;;;25.60;87.90;;;;;;5027131;28;20204;-83
2022/02/01 10:05:16;;;;;;;10.47;8.70;;;25.60;86.90;;;;;;5029218;28;20184;-80
2022/02/01 10:07:52;;;;;;;12.60;8.97;;;25.60;86.90;;;;;;5030288;28;20697;-85
2022/02/01 10:10:21;;;;;;;14.47;8.53;;;25.70;87.40;;;;;;5032031;28;20298;-80
2022/02/01 10:12:59;;;;;;;14.03;8.13;;;25.70;87.00;;;;;;5029579;28;20190;-80
2022/02/01 10:15:28;;;;;;;10.77;8.03;;;25.60;87.10;;;;;;5031943;28;20182;-81
2022/02/01 10:18:01;;;;;;;11.30;8.53;;;25.70;86.50;;;;;;5032894;28;20220;-81
2022/02/01 10:20:47;;;;;;;10.13;8.53;;;25.80;85.90;;;;;;5032793;28;20191;-77
2022/02/01 10:23:27;;;;;;;12.80;8.83;;;25.90;85.80;;;;;;5046096;28;20628;-77
2022/02/01 10:25:59;;;;;;;9.80;8.80;;;25.90;85.10;;;;;;5029122;28;20227;-74
2022/02/01 10:28:33;;;;;;;12.60;8.47;;;25.80;85.70;;;;;;5031454;28;20176;-77
2022/02/01 10:31:10;;;;;;;16.17;9.97;;;25.70;85.90;;;;;;5028917;28;20224;-76
2022/02/01 10:34:02;;;;;;;11.43;8.27;;;25.60;86.50;;;;;;5033007;28;20180;-78
2022/02/01 10:36:41;;;;;;;12.37;8.37;;;25.60;86.60;;;;;;5033524;28;20218;-75
2022/02/01 10:39:24;;;;;;;17.97;8.57;;;25.60;86.80;;;;;;5032776;28;20181;-76
2022/02/01 10:42:05;;;;;;;11.20;9.27;;;25.50;87.40;;;;;;5033332;28;20177;-78
2022/02/01 10:44:40;;;;;;;15.87;9.20;;;25.50;87.90;;;;;;5029253;28;20180;-75
2022/02/01 10:47:09;;;;;;;13.53;8.97;;;25.40;88.00;;;;;;5027851;28;20180;-76
2022/02/01 10:49:38;;;;;;;13.83;8.63;;;25.40;88.00;;;;;;5032538;28;20675;-75
2022/02/01 10:52:07;;;;;;;10.33;8.27;;;25.40;88.20;;;;;;5033304;28;20307;-75
2022/02/01 10:54:40;;;;;;;8.93;7.87;;;25.40;88.00;;;;;;5032418;28;20911;-75
2022/02/01 10:57:09;;;;;;;15.20;8.13;;;25.30;88.30;;;;;;5038774;28;20305;-76
2022/02/01 10:59:38;;;;;;;13.47;8.93;;;25.30;88.80;;;;;;5039356;28;20184;-75
2022/02/01 11:02:06;;;;;;;10.73;8.73;;;25.30;88.60;;;;;;5030573;28;20191;-75
2022/02/01 11:04:37;;;;;;;11.77;8.10;;;25.50;88.70;;;;;;5031823;28;20172;-79
2022/02/01 11:07:06;;;;;;;8.50;7.00;;;25.50;88.40;;;;;;5032250;28;20180;-76
2022/02/01 11:09:34;;;;;;;12.13;8.37;;;25.50;88.20;;;;;;5030859;28;20242;-77
2022/02/01 11:12:10;;;;;;;9.67;7.63;;;25.50;88.10;;;;;;5032101;28;20216;-76
2022/02/01 11:14:43;;;;;;;12.20;7.63;;;25.50;88.30;;;;;;5032369;28;20539;-75
2022/02/01 11:17:19;;;;;;;8.33;6.93;;;25.40;88.30;;;;;;5027991;28;20180;-76
2022/02/01 11:19:59;;;;;;;11.60;7.50;;;25.40;88.70;;;;;;5031245;28;20697;-77
2022/02/01 11:22:32;;;;;;;9.53;7.17;;;25.40;88.80;;;;;;5031453;28;20228;-74
2022/02/01 11:25:09;;;;;;;13.07;8.10;;;25.30;88.60;;;;;;5031353;28;20267;-76
2022/02/01 11:27:57;;;;;;;13.57;7.60;;;25.30;88.90;;;;;;5031672;28;20183;-77
2022/02/01 11:30:33;;;;;;;11.93;7.77;;;25.30;89.10;;;;;;5024326;28;20208;-76
2022/02/01 11:33:02;;;;;;;14.87;7.23;;;25.30;89.10;;;;;;5031936;28;20660;-75
2022/02/01 11:35:30;;;;;;;12.17;7.60;;;25.30;89.20;;;;;;5032884;28;20172;-75
2022/02/01 11:38:07;;;;;;;16.83;6.57;;;25.20;88.90;;;;;;5030905;28;20643;-76
2022/02/01 11:40:42;;;;;;;13.70;7.60;;;25.30;89.20;;;;;;5032940;28;20298;-75
2022/02/01 11:43:12;;;;;;;9.43;6.70;;;25.20;89.20;;;;;;5031802;28;20629;-75
2022/02/01 11:45:43;;;;;;;9.43;7.10;;;25.20;89.20;;;;;;5027785;28;20189;-75
2022/02/01 11:48:25;;;;;;;8.23;6.60;;;25.20;89.50;;;;;;5029883;28;20192;-75
2022/02/01 11:51:06;;;;;;;8.87;6.57;;;25.20;89.00;;;;;;5030106;28;20208;-75
2022/02/01 11:53:34;;;;;;;12.20;6.73;;;25.10;89.20;;;;;;5028827;28;20195;-75
2022/02/01 11:56:03;;;;;;;8.63;6.73;;;25.20;89.20;;;;;;5065676;28;20246;-76
2022/02/01 11:58:45;;;;;;;10.90;6.70;;;25.10;89.10;;;;;;5035358;28;20223;-76
2022/02/01 12:01:30;;;;;;;8.83;6.40;;;25.20;89.40;;;;;;5033419;28;20271;-76
2022/02/01 12:04:18;;;;;;;7.93;5.93;;;25.20;89.10;;;;;;5031986;28;20172;-76
2022/02/01 12:06:51;;;;;;;9.00;6.30;;;25.10;89.30;;;;;;5037300;28;20176;-75
2022/02/01 12:09:20;;;;;;;10.47;6.70;;;25.10;89.40;;;;;;5036167;28;20173;-76
2022/02/01 12:11:54;;;;;;;7.93;6.03;;;25.20;89.20;;;;;;5035836;28;20216;-75
2022/02/01 12:14:21;;;;;;;10.03;5.60;;;25.20;89.10;;;;;;5036781;28;20214;-75
2022/02/01 12:16:53;;;;;;;11.37;6.07;;;25.10;88.90;;;;;;5032066;28;20176;-74
2022/02/01 12:19:26;;;;;;;9.97;5.90;;;25.10;89.30;;;;;;5036142;28;20658;-74
2022/02/01 12:22:08;;;;;;;8.40;6.13;;;25.10;89.00;;;;;;5035034;28;20184;-73
2022/02/01 12:24:36;;;;;;;9.80;5.93;;;25.00;88.90;;;;;;5035917;28;20172;-75
2022/02/01 12:27:04;;;;;;;7.20;5.90;;;25.00;88.90;;;;;;5037993;28;20191;-73
2022/02/01 12:29:31;;;;;;;8.33;5.83;;;25.00;89.10;;;;;;5030816;28;20188;-75
2022/02/01 12:32:09;;;;;;;9.20;5.13;;;25.10;88.80;;;;;;5038291;28;20212;-75
2022/02/01 12:34:37;;;;;;;7.93;5.57;;;25.20;88.20;;;;;;5038063;28;20277;-75
2022/02/01 12:37:04;;;;;;;9.17;5.50;;;25.20;87.80;;;;;;5037892;28;20260;-75
2022/02/01 12:39:34;;;;;;;8.23;5.23;;;25.10;88.00;;;;;;5036324;28;20196;-74
2022/02/01 12:42:14;;;;;;;8.10;5.47;;;25.10;87.80;;;;;;5036997;28;20246;-76
2022/02/01 12:47:22;;;;;;;7.20;5.10;;;25.20;87.90;;;;;;5037881;28;20184;-76
2022/02/01 12:49:54;;;;;;;6.90;5.60;;;25.10;87.90;;;;;;5034005;28;20267;-75
2022/02/01 12:52:23;;;;;;;7.87;5.37;;;25.10;87.80;;;;;;5031841;28;20212;-75
2022/02/01 12:55:04;;;;;;;7.87;5.90;;;25.20;87.90;;;;;;5037505;28;20207;-76
2022/02/01 12:57:34;;;;;;;9.33;5.13;;;25.20;87.70;;;;;;5037002;28;20180;-76
2022/02/01 13:00:08;;;;;;;10.30;5.70;;;25.30;87.90;;;;;;5037755;28;20678;-77
2022/02/01 13:02:35;;;;;;;10.57;5.57;;;25.30;87.70;;;;;;5037276;28;20271;-75
2022/02/01 13:05:06;;;;;;;14.20;5.67;;;25.30;87.70;;;;;;5037552;28;20275;-74
2022/02/01 13:08:21;;;;;;;11.10;5.50;;;25.30;87.70;;;;;;5032615;28;20220;-75
2022/02/01 13:21:21;;;;;;;7.57;5.03;;;25.40;87.60;;;;;;5040667;28;20195;-75
2022/02/01 13:23:55;;;;;;;10.53;5.40;;;25.50;86.90;;;;;;5035448;28;20709;-77
2022/02/01 13:26:25;;;;;;;9.03;5.33;;;25.40;86.80;;;;;;5033904;28;20191;-77
2022/02/01 13:29:06;;;;;;;8.43;4.80;;;25.50;86.30;;;;;;5032924;28;20192;-78
2022/02/01 13:31:36;;;;;;;8.80;4.80;;;25.40;86.00;;;;;;5033977;28;20714;-75
2022/02/01 13:34:09;;;;;;;12.20;5.33;;;25.30;85.70;;;;;;5030509;28;20202;-76
2022/02/01 13:36:48;;;;;;;6.47;4.50;;;25.30;86.00;;;;;;5033413;28;20231;-75
2022/02/01 13:39:38;;;;;;;9.83;4.90;;;25.30;86.00;;;;;;5033676;28;20184;-75
2022/02/01 13:42:09;;;;;;;10.70;4.57;;;25.30;85.80;;;;;;5034117;28;20549;-77
2022/02/01 13:44:37;;;;;;;7.47;4.60;;;25.30;85.20;;;;;;5030998;28;20197;-76
2022/02/01 13:47:09;;;;;;;9.93;4.60;;;25.30;85.10;;;;;;5031044;28;20185;-78
2022/02/01 13:49:38;;;;;;;6.20;4.80;;;25.20;85.10;;;;;;5032541;28;20208;-77
2022/02/01 13:52:07;;;;;;;9.50;4.93;;;25.30;84.90;;;;;;5032272;28;20274;-77
2022/02/01 13:54:40;;;;;;;7.80;4.63;;;25.30;84.70;;;;;;5032175;28;20623;-78
2022/02/01 13:57:19;;;;;;;6.10;4.37;;;25.20;84.70;;;;;;5032625;28;20251;-79
2022/02/01 13:59:48;;;;;;;9.63;4.50;;;25.20;85.00;;;;;;5030515;28;20172;-76
2022/02/01 14:02:26;;;;;;;10.23;4.43;;;25.20;84.50;;;;;;5032483;28;20173;-74
2022/02/01 14:05:14;;;;;;;7.77;4.30;;;25.20;84.50;;;;;;5031442;28;20254;-77
2022/02/01 14:27:17;;;;;;;6.40;3.73;;;25.50;83.90;;;;;;5033178;28;20697;-74
2022/02/01 14:34:58;;;;;;;25.60;6.87;;;25.50;80.80;;;;;;5032079;28;20198;-75
2022/02/01 14:45:17;;;;;;;39.13;8.90;;;24.80;80.10;;;;;;5031912;28;20179;-74
2022/02/01 14:47:45;;;;;;;35.27;8.57;;;24.40;80.90;;;;;;5032427;28;20784;-72
2022/02/01 14:50:52;;;;;;;35.20;8.47;;;24.30;81.40;;;;;;5031971;28;20172;-75
2022/02/01 14:53:20;;;;;;;41.90;10.10;;;24.30;81.70;;;;;;5026784;28;20184;-75
2022/02/01 14:55:55;;;;;;;44.30;10.23;;;24.20;81.70;;;;;;5031797;28;20177;-74
2022/02/01 15:04:06;;;;;;;35.67;9.57;;;23.90;82.00;;;;;;5030662;28;20187;-71
2022/02/01 15:06:59;;;;;;;44.00;9.80;;;23.90;82.40;;;;;;5046935;28;20630;-75
2022/02/01 15:14:37;;;;;;;40.23;10.37;;;24.00;82.50;;;;;;5031625;28;20173;-85
2022/02/01 15:17:06;;;;;;;35.17;9.93;;;24.00;82.70;;;;;;5028818;28;20220;-78
2022/02/01 15:19:33;;;;;;;44.63;10.43;;;23.90;83.00;;;;;;5031721;28;20184;-80